sensor_id;sensor_type;location;lat;lon;timestamp;pressure;altitude;pressure_sealevel;temperature;humidity
67738;BME280;54534;43.612;1.572;2022-10-31T00:01:18;99327.19;;;22.16;51.62
67738;BME280;54534;43.612;1.572;2022-10-31T00:03:44;99322.00;;;22.15;51.46
67738;BME280;54534;43.612;1.572;2022-10-31T00:06:09;99322.97;;;22.14;51.51
67738;BME280;54534;43.612;1.572;2022-10-31T00:08:35;99327.19;;;22.16;51.41
67738;BME280;54534;43.612;1.572;2022-10-31T00:11:00;99331.72;;;22.16;51.42
67738;BME280;54534;43.612;1.572;2022-10-31T00:13:26;99330.19;;;22.13;51.55
67738;BME280;54534;43.612;1.572;2022-10-31T00:15:52;99323.69;;;22.16;51.67
67738;BME280;54534;43.612;1.572;2022-10-31T00:18:17;99330.03;;;22.15;51.42
67738;BME280;54534;43.612;1.572;2022-10-31T00:20:42;99340.75;;;22.15;51.61
67738;BME280;54534;43.612;1.572;2022-10-31T00:23:09;99351.44;;;22.15;51.49
67738;BME280;54534;43.612;1.572;2022-10-31T00:25:37;99360.34;;;22.15;51.68
67738;BME280;54534;43.612;1.572;2022-10-31T00:28:03;99356.81;;;22.15;51.68
67738;BME280;54534;43.612;1.572;2022-10-31T00:30:29;99343.41;;;22.15;51.57
67738;BME280;54534;43.612;1.572;2022-10-31T00:32:54;99338.06;;;22.15;51.39
67738;BME280;54534;43.612;1.572;2022-10-31T00:35:20;99353.16;;;22.16;51.54
67738;BME280;54534;43.612;1.572;2022-10-31T00:37:45;99375.56;;;22.15;51.39
67738;BME280;54534;43.612;1.572;2022-10-31T00:40:11;99396.00;;;22.16;51.59
67738;BME280;54534;43.612;1.572;2022-10-31T00:42:36;99417.44;;;22.16;51.40
67738;BME280;54534;43.612;1.572;2022-10-31T00:45:02;99394.31;;;22.15;51.42
67738;BME280;54534;43.612;1.572;2022-10-31T00:47:27;99370.19;;;22.15;51.43
67738;BME280;54534;43.612;1.572;2022-10-31T00:49:53;99323.81;;;22.14;51.55
67738;BME280;54534;43.612;1.572;2022-10-31T00:52:18;99283.66;;;22.14;51.45
67738;BME280;54534;43.612;1.572;2022-10-31T00:54:43;99262.25;;;22.14;51.43
67738;BME280;54534;43.612;1.572;2022-10-31T00:57:09;99239.16;;;22.13;51.32
67738;BME280;54534;43.612;1.572;2022-10-31T00:59:34;99223.91;;;22.14;51.35
67738;BME280;54534;43.612;1.572;2022-10-31T01:02:00;99221.22;;;22.14;51.48
67738;BME280;54534;43.612;1.572;2022-10-31T01:04:25;99191.75;;;22.14;51.39
67738;BME280;54534;43.612;1.572;2022-10-31T01:06:51;99167.66;;;22.14;51.39
67738;BME280;54534;43.612;1.572;2022-10-31T01:09:16;99176.72;;;22.13;51.29
67738;BME280;54534;43.612;1.572;2022-10-31T01:11:41;99204.34;;;22.13;51.48
67738;BME280;54534;43.612;1.572;2022-10-31T01:14:08;99211.53;;;22.13;51.44
67738;BME280;54534;43.612;1.572;2022-10-31T01:16:34;99215.88;;;22.14;51.34
67738;BME280;54534;43.612;1.572;2022-10-31T01:18:59;99213.34;;;22.12;51.42
67738;BME280;54534;43.612;1.572;2022-10-31T01:21:26;99214.19;;;22.13;51.51
67738;BME280;54534;43.612;1.572;2022-10-31T01:23:53;99212.38;;;22.13;51.40
67738;BME280;54534;43.612;1.572;2022-10-31T01:26:21;99216.88;;;22.13;51.50
67738;BME280;54534;43.612;1.572;2022-10-31T01:28:52;99221.38;;;22.12;51.24
67738;BME280;54534;43.612;1.572;2022-10-31T01:31:20;99225.88;;;22.11;51.27
67738;BME280;54534;43.612;1.572;2022-10-31T01:33:45;99232.09;;;22.12;51.34
67738;BME280;54534;43.612;1.572;2022-10-31T01:36:35;99235.63;;;22.13;51.28
67738;BME280;54534;43.612;1.572;2022-10-31T01:39:04;99244.63;;;22.11;51.52
67738;BME280;54534;43.612;1.572;2022-10-31T01:41:32;99241.94;;;22.11;51.52
67738;BME280;54534;43.612;1.572;2022-10-31T01:44:00;99244.78;;;22.10;51.50
67738;BME280;54534;43.612;1.572;2022-10-31T01:46:37;99244.63;;;22.11;51.34
67738;BME280;54534;43.612;1.572;2022-10-31T01:49:09;99255.34;;;22.11;51.35
67738;BME280;54534;43.612;1.572;2022-10-31T01:51:44;99247.31;;;22.11;51.45
67738;BME280;54534;43.612;1.572;2022-10-31T01:54:15;99241.94;;;22.11;51.49
67738;BME280;54534;43.612;1.572;2022-10-31T01:56:46;99241.25;;;22.09;51.46
67738;BME280;54534;43.612;1.572;2022-10-31T01:59:15;99237.59;;;22.10;51.23
67738;BME280;54534;43.612;1.572;2022-10-31T02:01:42;99242.97;;;22.10;51.35
67738;BME280;54534;43.612;1.572;2022-10-31T02:04:08;99236.75;;;22.10;51.30
67738;BME280;54534;43.612;1.572;2022-10-31T02:09:19;99231.41;;;22.10;51.45
67738;BME280;54534;43.612;1.572;2022-10-31T02:11:51;99222.53;;;22.09;51.41
67738;BME280;54534;43.612;1.572;2022-10-31T02:14:17;99224.22;;;22.10;51.48
67738;BME280;54534;43.612;1.572;2022-10-31T02:16:43;99216.19;;;22.10;51.49
67738;BME280;54534;43.612;1.572;2022-10-31T02:19:12;99210.84;;;22.10;51.14
67738;BME280;54534;43.612;1.572;2022-10-31T02:21:52;99205.47;;;22.10;51.29
67738;BME280;54534;43.612;1.572;2022-10-31T02:37:55;99199.41;;;22.08;50.98
67738;BME280;54534;43.612;1.572;2022-10-31T02:40:26;99183.34;;;22.08;51.45
67738;BME280;54534;43.612;1.572;2022-10-31T02:42:58;99181.78;;;22.06;51.38
67738;BME280;54534;43.612;1.572;2022-10-31T02:45:33;99176.31;;;22.07;51.41
67738;BME280;54534;43.612;1.572;2022-10-31T02:48:05;99168.28;;;22.07;51.40
67738;BME280;54534;43.612;1.572;2022-10-31T02:50:37;99163.78;;;22.08;51.37
67738;BME280;54534;43.612;1.572;2022-10-31T02:53:04;99164.59;;;22.08;51.43
67738;BME280;54534;43.612;1.572;2022-10-31T03:00:24;99168.28;;;22.07;51.46
67738;BME280;54534;43.612;1.572;2022-10-31T03:13:22;99161.22;;;22.06;51.35
67738;BME280;54534;43.612;1.572;2022-10-31T03:15:51;99147.16;;;22.04;51.32
67738;BME280;54534;43.612;1.572;2022-10-31T03:18:29;99152.22;;;22.07;51.37
67738;BME280;54534;43.612;1.572;2022-10-31T03:21:05;99153.19;;;22.06;51.19
67738;BME280;54534;43.612;1.572;2022-10-31T03:23:34;99148.69;;;22.07;51.40
67738;BME280;54534;43.612;1.572;2022-10-31T03:26:05;99144.31;;;22.06;51.28
67738;BME280;54534;43.612;1.572;2022-10-31T03:28:36;99149.66;;;22.06;51.10
67738;BME280;54534;43.612;1.572;2022-10-31T03:31:04;99146.16;;;22.05;51.35
67738;BME280;54534;43.612;1.572;2022-10-31T03:33:33;99147.00;;;22.06;51.11
67738;BME280;54534;43.612;1.572;2022-10-31T03:36:00;99153.34;;;22.05;51.25
67738;BME280;54534;43.612;1.572;2022-10-31T03:38:28;99159.56;;;22.05;51.16
67738;BME280;54534;43.612;1.572;2022-10-31T03:40:55;99152.50;;;22.04;51.35
67738;BME280;54534;43.612;1.572;2022-10-31T03:43:26;99142.78;;;22.03;51.26
67738;BME280;54534;43.612;1.572;2022-10-31T03:45:53;99144.31;;;22.06;51.37
67738;BME280;54534;43.612;1.572;2022-10-31T03:48:20;99146.31;;;22.04;51.18
67738;BME280;54534;43.612;1.572;2022-10-31T03:53:47;99153.34;;;22.05;51.21
67738;BME280;54534;43.612;1.572;2022-10-31T03:56:21;99152.50;;;22.04;51.21
67738;BME280;54534;43.612;1.572;2022-10-31T03:59:13;99150.69;;;22.05;51.07
67738;BME280;54534;43.612;1.572;2022-10-31T04:01:46;99145.31;;;22.05;51.27
67738;BME280;54534;43.612;1.572;2022-10-31T04:04:13;99141.78;;;22.04;51.19
67738;BME280;54534;43.612;1.572;2022-10-31T04:06:40;99148.00;;;22.05;51.17
67738;BME280;54534;43.612;1.572;2022-10-31T04:09:08;99150.69;;;22.05;51.19
67738;BME280;54534;43.612;1.572;2022-10-31T04:11:36;99148.97;;;22.04;51.19
67738;BME280;54534;43.612;1.572;2022-10-31T04:14:06;99147.16;;;22.04;51.24
67738;BME280;54534;43.612;1.572;2022-10-31T04:16:32;99146.31;;;22.04;51.12
67738;BME280;54534;43.612;1.572;2022-10-31T04:18:58;99144.47;;;22.04;51.11
67738;BME280;54534;43.612;1.572;2022-10-31T04:21:27;99153.34;;;22.05;51.05
67738;BME280;54534;43.612;1.572;2022-10-31T04:23:53;99145.44;;;22.03;51.06
67738;BME280;54534;43.612;1.572;2022-10-31T04:26:19;99154.19;;;22.05;51.30
67738;BME280;54534;43.612;1.572;2022-10-31T04:28:44;99142.78;;;22.03;51.33
67738;BME280;54534;43.612;1.572;2022-10-31T04:31:11;99141.78;;;22.04;51.32
67738;BME280;54534;43.612;1.572;2022-10-31T04:33:36;99135.59;;;22.04;51.12
67738;BME280;54534;43.612;1.572;2022-10-31T04:36:02;99131.94;;;22.05;51.18
67738;BME280;54534;43.612;1.572;2022-10-31T04:38:28;99129.38;;;22.03;51.04
67738;BME280;54534;43.612;1.572;2022-10-31T04:40:53;99130.25;;;22.04;51.18
67738;BME280;54534;43.612;1.572;2022-10-31T04:43:19;99128.56;;;22.03;51.13
67738;BME280;54534;43.612;1.572;2022-10-31T04:45:44;99132.06;;;22.03;51.30
67738;BME280;54534;43.612;1.572;2022-10-31T04:48:10;99132.06;;;22.03;51.15
67738;BME280;54534;43.612;1.572;2022-10-31T04:50:35;99125.03;;;22.02;51.04
67738;BME280;54534;43.612;1.572;2022-10-31T04:53:00;99117.88;;;22.03;51.18
67738;BME280;54534;43.612;1.572;2022-10-31T04:55:26;99127.72;;;22.02;51.06
67738;BME280;54534;43.612;1.572;2022-10-31T04:57:51;99128.56;;;22.03;50.98
67738;BME280;54534;43.612;1.572;2022-10-31T05:00:18;99130.41;;;22.02;51.01
67738;BME280;54534;43.612;1.572;2022-10-31T05:02:48;99134.75;;;22.03;51.26
67738;BME280;54534;43.612;1.572;2022-10-31T05:05:18;99138.44;;;22.02;51.19
67738;BME280;54534;43.612;1.572;2022-10-31T05:07:44;99134.22;;;21.99;51.29
67738;BME280;54534;43.612;1.572;2022-10-31T05:10:15;99138.44;;;22.02;51.21
67738;BME280;54534;43.612;1.572;2022-10-31T05:12:55;99123.34;;;22.01;50.89
67738;BME280;54534;43.612;1.572;2022-10-31T05:15:22;99127.03;;;22.00;51.12
67738;BME280;54534;43.612;1.572;2022-10-31T05:17:49;99115.31;;;22.01;51.24
67738;BME280;54534;43.612;1.572;2022-10-31T05:20:17;99124.19;;;22.02;51.20
67738;BME280;54534;43.612;1.572;2022-10-31T05:22:43;99117.31;;;21.99;50.89
67738;BME280;54534;43.612;1.572;2022-10-31T05:25:10;99115.31;;;22.01;51.16
67738;BME280;54534;43.612;1.572;2022-10-31T05:27:38;99108.13;;;22.02;50.85
67738;BME280;54534;43.612;1.572;2022-10-31T05:30:04;99110.13;;;21.99;50.84
67738;BME280;54534;43.612;1.572;2022-10-31T05:32:36;99103.75;;;22.00;50.91
67738;BME280;54534;43.612;1.572;2022-10-31T05:35:02;99107.44;;;21.99;51.07
67738;BME280;54534;43.612;1.572;2022-10-31T05:37:27;99114.47;;;22.00;50.98
67738;BME280;54534;43.612;1.572;2022-10-31T05:39:53;99106.59;;;21.99;50.83
67738;BME280;54534;43.612;1.572;2022-10-31T05:42:18;99104.59;;;22.01;50.93
67738;BME280;54534;43.612;1.572;2022-10-31T05:44:43;99106.44;;;22.00;51.09
67738;BME280;54534;43.612;1.572;2022-10-31T05:47:09;99107.28;;;22.01;51.09
67738;BME280;54534;43.612;1.572;2022-10-31T05:49:34;99103.91;;;21.99;50.85
67738;BME280;54534;43.612;1.572;2022-10-31T05:51:59;99100.41;;;21.98;50.79
67738;BME280;54534;43.612;1.572;2022-10-31T05:54:25;99108.28;;;22.00;51.01
67738;BME280;54534;43.612;1.572;2022-10-31T05:56:50;99114.63;;;21.99;50.78
67738;BME280;54534;43.612;1.572;2022-10-31T05:59:15;99111.94;;;21.99;50.83
67738;BME280;54534;43.612;1.572;2022-10-31T06:01:41;99120.13;;;21.97;50.90
67738;BME280;54534;43.612;1.572;2022-10-31T06:04:06;99109.44;;;21.97;51.01
67738;BME280;54534;43.612;1.572;2022-10-31T06:06:32;99105.75;;;21.98;50.80
67738;BME280;54534;43.612;1.572;2022-10-31T06:08:57;99107.56;;;21.98;50.75
67738;BME280;54534;43.612;1.572;2022-10-31T06:11:22;99115.59;;;21.98;50.96
67738;BME280;54534;43.612;1.572;2022-10-31T06:13:48;99110.25;;;21.98;50.63
67738;BME280;54534;43.612;1.572;2022-10-31T06:16:13;99107.56;;;21.98;50.80
67738;BME280;54534;43.612;1.572;2022-10-31T06:18:39;99118.28;;;21.98;50.77
67738;BME280;54534;43.612;1.572;2022-10-31T06:21:04;99114.91;;;21.96;50.83
67738;BME280;54534;43.612;1.572;2022-10-31T06:23:30;99105.91;;;21.97;50.90
67738;BME280;54534;43.612;1.572;2022-10-31T06:25:55;99105.91;;;21.97;50.66
67738;BME280;54534;43.612;1.572;2022-10-31T06:28:20;99106.88;;;21.96;50.71
67738;BME280;54534;43.612;1.572;2022-10-31T06:30:46;99098.84;;;21.96;50.73
67738;BME280;54534;43.612;1.572;2022-10-31T06:33:11;99107.75;;;21.96;50.67
67738;BME280;54534;43.612;1.572;2022-10-31T06:35:37;99094.50;;;21.95;50.88
67738;BME280;54534;43.612;1.572;2022-10-31T06:38:02;99093.50;;;21.96;50.92
67738;BME280;54534;43.612;1.572;2022-10-31T06:40:27;99101.53;;;21.96;50.80
67738;BME280;54534;43.612;1.572;2022-10-31T06:43:00;99105.22;;;21.95;50.61
67738;BME280;54534;43.612;1.572;2022-10-31T06:45:26;99113.25;;;21.95;50.81
67738;BME280;54534;43.612;1.572;2022-10-31T06:47:53;99115.94;;;21.95;50.86
67738;BME280;54534;43.612;1.572;2022-10-31T06:50:19;99116.75;;;21.95;50.83
67738;BME280;54534;43.612;1.572;2022-10-31T06:52:50;99113.25;;;21.95;50.71
67738;BME280;54534;43.612;1.572;2022-10-31T06:55:15;99110.56;;;21.95;50.79
67738;BME280;54534;43.612;1.572;2022-10-31T06:57:41;99117.75;;;21.94;50.77
67738;BME280;54534;43.612;1.572;2022-10-31T07:00:07;99114.22;;;21.94;50.58
67738;BME280;54534;43.612;1.572;2022-10-31T07:02:33;99122.25;;;21.94;50.57
67738;BME280;54534;43.612;1.572;2022-10-31T07:04:58;99119.75;;;21.92;50.54
67738;BME280;54534;43.612;1.572;2022-10-31T07:07:24;99129.44;;;21.93;50.77
67738;BME280;54534;43.612;1.572;2022-10-31T07:09:49;99131.59;;;21.89;50.65
67738;BME280;54534;43.612;1.572;2022-10-31T07:12:15;99125.09;;;21.92;50.62
67738;BME280;54534;43.612;1.572;2022-10-31T07:14:41;99124.94;;;21.94;50.55
67738;BME280;54534;43.612;1.572;2022-10-31T07:17:06;99123.25;;;21.93;50.66
67738;BME280;54534;43.612;1.572;2022-10-31T07:19:31;99117.06;;;21.92;50.59
67738;BME280;54534;43.612;1.572;2022-10-31T07:21:57;99130.44;;;21.92;50.61
67738;BME280;54534;43.612;1.572;2022-10-31T07:24:22;99132.28;;;21.92;50.75
67738;BME280;54534;43.612;1.572;2022-10-31T07:26:48;99138.47;;;21.92;50.77
67738;BME280;54534;43.612;1.572;2022-10-31T07:29:14;99127.91;;;21.91;50.67
67738;BME280;54534;43.612;1.572;2022-10-31T07:31:39;99129.59;;;21.92;50.73
67738;BME280;54534;43.612;1.572;2022-10-31T07:34:05;99127.91;;;21.91;50.78
67738;BME280;54534;43.612;1.572;2022-10-31T07:36:30;99133.25;;;21.91;50.75
67738;BME280;54534;43.612;1.572;2022-10-31T07:38:55;99136.78;;;21.91;50.59
67738;BME280;54534;43.612;1.572;2022-10-31T07:41:23;99132.41;;;21.90;50.66
67738;BME280;54534;43.612;1.572;2022-10-31T07:43:48;99125.22;;;21.91;50.59
67738;BME280;54534;43.612;1.572;2022-10-31T07:46:14;99126.25;;;21.89;50.61
67738;BME280;54534;43.612;1.572;2022-10-31T07:48:39;99125.22;;;21.91;50.78
67738;BME280;54534;43.612;1.572;2022-10-31T07:51:04;99127.06;;;21.90;50.63
67738;BME280;54534;43.612;1.572;2022-10-31T07:53:32;99131.59;;;21.89;50.59
67738;BME280;54534;43.612;1.572;2022-10-31T07:55:57;99138.59;;;21.91;50.74
67738;BME280;54534;43.612;1.572;2022-10-31T07:58:22;99127.06;;;21.90;50.77
67738;BME280;54534;43.612;1.572;2022-10-31T08:00:48;99130.88;;;21.87;50.37
67738;BME280;54534;43.612;1.572;2022-10-31T08:03:16;99134.41;;;21.88;50.67
67738;BME280;54534;43.612;1.572;2022-10-31T08:05:42;99135.09;;;21.90;50.80
67738;BME280;54534;43.612;1.572;2022-10-31T08:08:10;99140.59;;;21.88;50.75
67738;BME280;54534;43.612;1.572;2022-10-31T08:10:36;99132.69;;;21.87;50.74
67738;BME280;54534;43.612;1.572;2022-10-31T08:13:10;99119.31;;;21.87;50.65
67738;BME280;54534;43.612;1.572;2022-10-31T08:15:36;99112.13;;;21.87;50.61
67738;BME280;54534;43.612;1.572;2022-10-31T08:18:05;99113.09;;;21.86;50.49
67738;BME280;54534;43.612;1.572;2022-10-31T08:20:31;99112.25;;;21.86;50.71
67738;BME280;54534;43.612;1.572;2022-10-31T08:23:02;99108.47;;;21.88;50.73
67738;BME280;54534;43.612;1.572;2022-10-31T08:25:30;99099.72;;;21.86;50.58
67738;BME280;54534;43.612;1.572;2022-10-31T08:27:56;99107.75;;;21.86;50.75
67738;BME280;54534;43.612;1.572;2022-10-31T08:30:24;99104.41;;;21.84;50.53
67738;BME280;54534;43.612;1.572;2022-10-31T08:35:31;99104.22;;;21.86;50.60
67738;BME280;54534;43.612;1.572;2022-10-31T08:37:57;99108.75;;;21.85;50.71
67738;BME280;54534;43.612;1.572;2022-10-31T08:40:23;99093.53;;;21.86;50.67
67738;BME280;54534;43.612;1.572;2022-10-31T08:42:57;99093.53;;;21.86;50.54
67738;BME280;54534;43.612;1.572;2022-10-31T08:45:22;99095.34;;;21.85;50.62
67738;BME280;54534;43.612;1.572;2022-10-31T08:47:48;99098.03;;;21.85;50.54
67738;BME280;54534;43.612;1.572;2022-10-31T08:50:13;99082.97;;;21.84;50.72
67738;BME280;54534;43.612;1.572;2022-10-31T08:52:39;99072.28;;;21.84;50.79
67738;BME280;54534;43.612;1.572;2022-10-31T08:55:04;99066.94;;;21.84;50.51
67738;BME280;54534;43.612;1.572;2022-10-31T08:57:30;99068.75;;;21.84;50.56
67738;BME280;54534;43.612;1.572;2022-10-31T08:59:55;99062.56;;;21.83;50.65
67738;BME280;54534;43.612;1.572;2022-10-31T09:02:21;99052.69;;;21.84;50.51
67738;BME280;54534;43.612;1.572;2022-10-31T09:04:46;99056.22;;;21.84;50.51
67738;BME280;54534;43.612;1.572;2022-10-31T09:07:11;99054.53;;;21.83;50.56
67738;BME280;54534;43.612;1.572;2022-10-31T09:09:37;99054.53;;;21.83;50.63
67738;BME280;54534;43.612;1.572;2022-10-31T09:12:02;99051.69;;;21.85;50.59
67738;BME280;54534;43.612;1.572;2022-10-31T09:14:28;99055.38;;;21.84;50.65
67738;BME280;54534;43.612;1.572;2022-10-31T09:16:53;99040.16;;;21.84;50.43
67738;BME280;54534;43.612;1.572;2022-10-31T09:19:18;99054.53;;;21.83;50.50
67738;BME280;54534;43.612;1.572;2022-10-31T09:21:44;99038.47;;;21.83;50.63
67738;BME280;54534;43.612;1.572;2022-10-31T09:24:09;99054.53;;;21.83;50.75
67738;BME280;54534;43.612;1.572;2022-10-31T09:26:35;99041.13;;;21.83;50.49
67738;BME280;54534;43.612;1.572;2022-10-31T09:29:00;99030.44;;;21.83;50.59
67738;BME280;54534;43.612;1.572;2022-10-31T09:31:27;99037.63;;;21.83;50.62
67738;BME280;54534;43.612;1.572;2022-10-31T09:33:53;99031.41;;;21.82;50.54
67738;BME280;54534;43.612;1.572;2022-10-31T09:36:19;99036.75;;;21.82;50.45
67738;BME280;54534;43.612;1.572;2022-10-31T09:38:44;99025.22;;;21.82;50.38
67738;BME280;54534;43.612;1.572;2022-10-31T09:41:28;99034.09;;;21.82;50.47
67738;BME280;54534;43.612;1.572;2022-10-31T09:52:01;99039.44;;;21.82;50.48
67738;BME280;54534;43.612;1.572;2022-10-31T09:54:41;99040.28;;;21.83;50.29
67738;BME280;54534;43.612;1.572;2022-10-31T09:57:13;99035.91;;;21.82;50.40
67738;BME280;54534;43.612;1.572;2022-10-31T09:59:40;99041.28;;;21.82;50.34
67738;BME280;54534;43.612;1.572;2022-10-31T10:02:19;99038.75;;;21.80;50.51
67738;BME280;54534;43.612;1.572;2022-10-31T10:07:19;99037.06;;;21.79;50.49
67738;BME280;54534;43.612;1.572;2022-10-31T10:09:47;99038.75;;;21.80;50.50
67738;BME280;54534;43.612;1.572;2022-10-31T10:12:30;99033.41;;;21.80;50.58
67738;BME280;54534;43.612;1.572;2022-10-31T10:20:41;99040.59;;;21.80;50.39
67738;BME280;54534;43.612;1.572;2022-10-31T10:26:15;99044.97;;;21.81;50.31
67738;BME280;54534;43.612;1.572;2022-10-31T10:28:44;99040.59;;;21.80;50.49
67738;BME280;54534;43.612;1.572;2022-10-31T10:31:20;99037.06;;;21.79;50.53
67738;BME280;54534;43.612;1.572;2022-10-31T10:36:40;99033.41;;;21.80;50.53
67738;BME280;54534;43.612;1.572;2022-10-31T10:39:14;99028.06;;;21.80;50.72
67738;BME280;54534;43.612;1.572;2022-10-31T10:41:44;99025.38;;;21.80;50.38
67738;BME280;54534;43.612;1.572;2022-10-31T10:44:10;99022.84;;;21.78;50.50
67738;BME280;54534;43.612;1.572;2022-10-31T10:46:43;99021.84;;;21.80;50.54
67738;BME280;54534;43.612;1.572;2022-10-31T10:49:51;99015.66;;;21.79;50.47
67738;BME280;54534;43.612;1.572;2022-10-31T10:57:59;99007.63;;;21.79;50.46
67738;BME280;54534;43.612;1.572;2022-10-31T11:00:38;99002.28;;;21.79;50.49
67738;BME280;54534;43.612;1.572;2022-10-31T11:03:05;99001.59;;;21.77;50.56
67738;BME280;54534;43.612;1.572;2022-10-31T11:05:41;98994.25;;;21.79;50.46
67738;BME280;54534;43.612;1.572;2022-10-31T11:08:08;98990.88;;;21.77;50.48
67738;BME280;54534;43.612;1.572;2022-10-31T11:10:34;98987.06;;;21.80;50.30
67738;BME280;54534;43.612;1.572;2022-10-31T11:13:22;98978.19;;;21.79;50.44
67738;BME280;54534;43.612;1.572;2022-10-31T11:18:24;98983.53;;;21.79;50.47
67738;BME280;54534;43.612;1.572;2022-10-31T11:20:53;98982.72;;;21.78;50.54
67738;BME280;54534;43.612;1.572;2022-10-31T11:23:21;98976.53;;;21.78;50.44
67738;BME280;54534;43.612;1.572;2022-10-31T11:28:17;98985.41;;;21.78;50.47
67738;BME280;54534;43.612;1.572;2022-10-31T11:31:12;98963.81;;;21.80;50.35
67738;BME280;54534;43.612;1.572;2022-10-31T11:33:50;98961.16;;;21.80;50.63
67738;BME280;54534;43.612;1.572;2022-10-31T11:36:24;98958.47;;;21.80;50.46
67738;BME280;54534;43.612;1.572;2022-10-31T11:38:51;98949.59;;;21.80;50.44
67738;BME280;54534;43.612;1.572;2022-10-31T11:41:30;98953.13;;;21.80;50.31
67738;BME280;54534;43.612;1.572;2022-10-31T11:43:58;98955.13;;;21.78;50.54
67738;BME280;54534;43.612;1.572;2022-10-31T11:46:37;98950.59;;;21.78;50.45
67738;BME280;54534;43.612;1.572;2022-10-31T11:49:04;98944.41;;;21.78;50.37
67738;BME280;54534;43.612;1.572;2022-10-31T11:51:34;98940.72;;;21.79;50.50
67738;BME280;54534;43.612;1.572;2022-10-31T11:54:01;98938.22;;;21.77;50.38
67738;BME280;54534;43.612;1.572;2022-10-31T11:56:37;98930.00;;;21.79;50.45
67738;BME280;54534;43.612;1.572;2022-10-31T11:59:05;98924.66;;;21.79;50.54
67738;BME280;54534;43.612;1.572;2022-10-31T12:01:31;98913.97;;;21.79;50.56
67738;BME280;54534;43.612;1.572;2022-10-31T12:04:07;98913.97;;;21.79;50.36
67738;BME280;54534;43.612;1.572;2022-10-31T12:06:35;98905.13;;;21.78;50.49
67738;BME280;54534;43.612;1.572;2022-10-31T12:09:04;98906.78;;;21.80;50.33
67738;BME280;54534;43.612;1.572;2022-10-31T12:12:10;98903.13;;;21.81;50.34
67738;BME280;54534;43.612;1.572;2022-10-31T12:14:45;98894.25;;;21.80;50.42
67738;BME280;54534;43.612;1.572;2022-10-31T12:20:32;98896.06;;;21.80;50.38
67738;BME280;54534;43.612;1.572;2022-10-31T12:34:19;98877.34;;;21.80;50.58
67738;BME280;54534;43.612;1.572;2022-10-31T12:39:51;98874.66;;;21.80;50.43
67738;BME280;54534;43.612;1.572;2022-10-31T12:50:39;98853.13;;;21.81;50.57
67738;BME280;54534;43.612;1.572;2022-10-31T12:56:31;98849.72;;;21.79;50.46
67738;BME280;54534;43.612;1.572;2022-10-31T12:59:06;98838.03;;;21.80;50.56
67738;BME280;54534;43.612;1.572;2022-10-31T13:01:37;98846.91;;;21.81;50.69
67738;BME280;54534;43.612;1.572;2022-10-31T13:06:50;98838.03;;;21.80;50.65
67738;BME280;54534;43.612;1.572;2022-10-31T13:09:41;98836.06;;;21.82;50.62
67738;BME280;54534;43.612;1.572;2022-10-31T13:12:11;98828.19;;;21.81;50.59
67738;BME280;54534;43.612;1.572;2022-10-31T13:14:41;98824.66;;;21.80;50.58
67738;BME280;54534;43.612;1.572;2022-10-31T13:17:51;98839.56;;;21.83;50.68
67738;BME280;54534;43.612;1.572;2022-10-31T13:23:03;98819.00;;;21.83;50.73
67738;BME280;54534;43.612;1.572;2022-10-31T13:25:33;98819.00;;;21.83;50.65
67738;BME280;54534;43.612;1.572;2022-10-31T13:28:08;98821.69;;;21.83;50.26
67738;BME280;54534;43.612;1.572;2022-10-31T13:30:38;98818.16;;;21.83;50.45
67738;BME280;54534;43.612;1.572;2022-10-31T13:33:46;98812.81;;;21.83;50.65
67738;BME280;54534;43.612;1.572;2022-10-31T13:36:33;98818.03;;;21.84;50.58
67738;BME280;54534;43.612;1.572;2022-10-31T13:41:57;98808.31;;;21.83;50.47
67738;BME280;54534;43.612;1.572;2022-10-31T13:44:27;98810.81;;;21.85;50.62
67738;BME280;54534;43.612;1.572;2022-10-31T13:46:55;98810.00;;;21.84;50.54
67738;BME280;54534;43.612;1.572;2022-10-31T13:54:37;98815.19;;;21.86;50.76
67738;BME280;54534;43.612;1.572;2022-10-31T13:57:14;98802.78;;;21.85;50.70
67738;BME280;54534;43.612;1.572;2022-10-31T13:59:47;98804.66;;;21.84;50.62
67738;BME280;54534;43.612;1.572;2022-10-31T14:02:16;98808.84;;;21.87;50.66
67738;BME280;54534;43.612;1.572;2022-10-31T14:07:15;98803.34;;;21.88;50.55
67738;BME280;54534;43.612;1.572;2022-10-31T14:12:34;98792.94;;;21.85;50.70
67738;BME280;54534;43.612;1.572;2022-10-31T14:15:05;98797.28;;;21.86;50.62
67738;BME280;54534;43.612;1.572;2022-10-31T14:17:48;98804.22;;;21.89;50.59
67738;BME280;54534;43.612;1.572;2022-10-31T14:22:40;98804.22;;;21.89;50.73
67738;BME280;54534;43.612;1.572;2022-10-31T14:27:50;98801.66;;;21.87;50.62
67738;BME280;54534;43.612;1.572;2022-10-31T14:30:24;98801.25;;;21.82;50.70
67738;BME280;54534;43.612;1.572;2022-10-31T14:32:52;98803.34;;;21.88;50.58
67738;BME280;54534;43.612;1.572;2022-10-31T14:35:20;98802.38;;;21.89;50.65
67738;BME280;54534;43.612;1.572;2022-10-31T14:43:35;98793.34;;;21.91;50.65
67738;BME280;54534;43.612;1.572;2022-10-31T14:46:14;98793.34;;;21.91;50.64
67738;BME280;54534;43.612;1.572;2022-10-31T14:51:42;98794.50;;;21.88;50.57
67738;BME280;54534;43.612;1.572;2022-10-31T14:54:14;98794.34;;;21.89;50.73
67738;BME280;54534;43.612;1.572;2022-10-31T14:56:53;98791.66;;;21.89;50.86
67738;BME280;54534;43.612;1.572;2022-10-31T14:59:22;98798.69;;;21.91;50.72
67738;BME280;54534;43.612;1.572;2022-10-31T15:01:57;98795.03;;;21.92;50.91
67738;BME280;54534;43.612;1.572;2022-10-31T15:04:28;98795.03;;;21.92;50.77
67738;BME280;54534;43.612;1.572;2022-10-31T15:09:31;98793.34;;;21.91;50.56
67738;BME280;54534;43.612;1.572;2022-10-31T15:12:14;98790.53;;;21.92;50.80
67738;BME280;54534;43.612;1.572;2022-10-31T15:14:46;98795.03;;;21.92;50.73
67738;BME280;54534;43.612;1.572;2022-10-31T15:17:12;98795.03;;;21.92;50.65
67738;BME280;54534;43.612;1.572;2022-10-31T15:19:38;98792.50;;;21.90;50.66
67738;BME280;54534;43.612;1.572;2022-10-31T15:22:04;98802.03;;;21.93;50.61
67738;BME280;54534;43.612;1.572;2022-10-31T15:24:35;98809.09;;;21.94;50.74